createdAt,value
2018-09-04T00:02:12.708Z,18.90
2018-09-04T00:04:41.178Z,18.90
2018-09-04T00:07:09.614Z,18.90
2018-09-04T00:09:38.051Z,18.90
2018-09-04T00:12:06.519Z,18.90
2018-09-04T00:14:34.928Z,18.80
2018-09-04T00:17:03.354Z,18.80
2018-09-04T00:19:31.762Z,18.80
2018-09-04T00:22:00.283Z,18.70
2018-09-04T00:24:28.822Z,18.70
2018-09-04T00:26:57.265Z,18.70
2018-09-04T00:29:25.700Z,18.70
2018-09-04T00:31:54.448Z,18.60
2018-09-04T00:34:22.909Z,18.60
2018-09-04T00:36:51.333Z,18.60
2018-09-04T00:39:20.188Z,18.50
2018-09-04T00:41:49.242Z,18.50
2018-09-04T00:44:17.662Z,18.40
2018-09-04T00:46:46.097Z,18.40
2018-09-04T00:49:14.523Z,18.30
2018-09-04T00:51:42.953Z,18.30
2018-09-04T00:54:11.413Z,18.30
2018-09-04T00:56:39.825Z,18.30
2018-09-04T00:59:08.458Z,18.20
2018-09-04T01:01:36.955Z,18.30
2018-09-04T01:04:05.427Z,18.20
2018-09-04T01:06:34.009Z,18.20
2018-09-04T01:09:02.550Z,18.20
2018-09-04T01:11:31.049Z,18.20
2018-09-04T01:14:06.066Z,18.30
2018-09-04T01:16:34.614Z,18.30
2018-09-04T01:19:03.003Z,18.30
2018-09-04T01:21:31.470Z,18.20
2018-09-04T01:23:59.854Z,18.20
2018-09-04T01:26:28.330Z,18.10
2018-09-04T01:28:56.812Z,18.10
2018-09-04T01:31:25.254Z,18.00
2018-09-04T01:33:53.679Z,18.00
2018-09-04T01:36:22.145Z,18.10
2018-09-04T01:38:51.072Z,18.00
2018-09-04T01:41:20.108Z,18.00
2018-09-04T01:43:49.028Z,18.00
2018-09-04T01:46:17.458Z,18.00
2018-09-04T01:48:45.895Z,18.00
2018-09-04T01:51:14.499Z,18.10
2018-09-04T01:53:42.977Z,18.10
2018-09-04T01:56:11.397Z,18.10
2018-09-04T01:58:39.806Z,18.10
2018-09-04T02:01:08.250Z,18.10
2018-09-04T02:03:36.796Z,18.10
2018-09-04T02:06:05.246Z,18.10
2018-09-04T02:08:33.657Z,18.10
2018-09-04T02:11:02.053Z,18.10
2018-09-04T02:13:30.528Z,18.20
2018-09-04T02:15:58.962Z,18.10
2018-09-04T02:18:27.361Z,18.10
2018-09-04T02:20:55.775Z,18.10
2018-09-04T02:23:24.209Z,18.20
2018-09-04T02:25:52.610Z,18.20
2018-09-04T02:28:21.084Z,18.20
2018-09-04T02:30:49.512Z,18.20
2018-09-04T02:33:17.926Z,18.20
2018-09-04T02:35:46.465Z,18.10
2018-09-04T02:38:15.513Z,18.10
2018-09-04T02:40:44.002Z,18.20
2018-09-04T02:43:12.426Z,18.10
2018-09-04T02:52:39.960Z,18.20
2018-09-04T02:55:15.035Z,18.40
2018-09-04T02:57:43.422Z,18.40
2018-09-04T03:00:11.919Z,18.40
2018-09-04T03:02:40.332Z,18.30
2018-09-04T03:05:08.743Z,18.30
2018-09-04T03:07:37.210Z,18.40
2018-09-04T03:10:06.573Z,18.40
2018-09-04T03:12:35.015Z,18.40
2018-09-04T03:15:03.519Z,18.50
2018-09-04T03:17:32.362Z,18.50
2018-09-04T03:20:00.781Z,18.50
2018-09-04T03:22:29.913Z,18.40
2018-09-04T03:24:58.399Z,18.50
2018-09-04T03:27:26.788Z,18.50
2018-09-04T03:29:55.206Z,18.50
2018-09-04T03:32:23.674Z,18.40
2018-09-04T03:34:52.118Z,18.40
2018-09-04T03:37:20.495Z,18.40
2018-09-04T03:39:48.943Z,18.40
2018-09-04T03:42:17.451Z,18.40
2018-09-04T03:44:46.055Z,18.40
2018-09-04T03:47:14.601Z,18.30
2018-09-04T03:49:43.030Z,18.30
2018-09-04T03:52:11.498Z,18.30
2018-09-04T03:54:39.945Z,18.40
2018-09-04T03:57:08.364Z,18.30
2018-09-04T03:59:36.825Z,18.30
2018-09-04T04:02:05.351Z,18.20
2018-09-04T04:04:33.824Z,18.20
2018-09-04T04:07:02.220Z,18.20
2018-09-04T04:09:30.628Z,18.20
2018-09-04T04:11:59.643Z,18.20
2018-09-04T04:14:28.734Z,18.20
2018-09-04T04:16:57.486Z,18.20
2018-09-04T04:19:25.955Z,18.10
2018-09-04T04:21:54.373Z,18.20
2018-09-04T04:24:22.750Z,18.20
2018-09-04T04:26:51.228Z,18.20
2018-09-04T04:29:19.847Z,18.20
2018-09-04T04:31:48.341Z,18.20
2018-09-04T04:34:16.806Z,18.20
2018-09-04T04:36:45.269Z,18.30
2018-09-04T04:39:13.670Z,18.30
2018-09-04T04:41:42.079Z,18.30
2018-09-04T04:44:10.553Z,18.30
2018-09-04T04:46:38.931Z,18.30
2018-09-04T04:49:07.858Z,18.40
2018-09-04T04:51:36.358Z,18.50
2018-09-04T04:54:05.258Z,18.50
2018-09-04T04:56:33.665Z,18.40
2018-09-04T04:59:02.200Z,18.40
2018-09-04T05:01:30.672Z,18.40
2018-09-04T05:03:59.741Z,18.50
2018-09-04T05:06:28.273Z,18.50
2018-09-04T05:08:56.761Z,18.50
2018-09-04T05:11:25.743Z,18.50
2018-09-04T05:13:54.304Z,18.40
2018-09-04T05:16:22.789Z,18.40
2018-09-04T05:18:51.370Z,18.30
2018-09-04T05:21:19.962Z,18.20
2018-09-04T05:23:48.345Z,18.10
2018-09-04T05:26:16.806Z,17.90
2018-09-04T05:28:45.263Z,17.80
2018-09-04T05:31:13.860Z,17.60
2018-09-04T05:33:48.910Z,17.50
2018-09-04T05:36:17.447Z,17.50
2018-09-04T05:38:45.820Z,17.60
2018-09-04T05:41:14.265Z,17.70
2018-09-04T05:43:52.004Z,17.70
2018-09-04T05:46:26.205Z,17.70
2018-09-04T05:48:55.618Z,17.80
2018-09-04T05:51:24.029Z,17.90
2018-09-04T05:53:52.554Z,17.90
2018-09-04T05:56:20.999Z,17.90
2018-09-04T05:58:49.479Z,18.00
2018-09-04T06:01:18.098Z,18.00
2018-09-04T06:03:46.467Z,18.10
2018-09-04T06:06:14.980Z,18.10
2018-09-04T06:08:43.361Z,18.00
2018-09-04T06:11:11.824Z,18.10
2018-09-04T06:13:40.539Z,17.90
2018-09-04T06:16:09.555Z,17.90
2018-09-04T06:18:38.008Z,18.00
2018-09-04T06:21:06.109Z,18.10
2018-09-04T06:23:34.518Z,18.10
2018-09-04T06:26:02.995Z,18.20
2018-09-04T06:28:31.446Z,18.20
2018-09-04T06:30:59.904Z,18.20
2018-09-04T06:33:28.291Z,18.20
2018-09-04T06:35:56.706Z,18.20
2018-09-04T06:38:25.192Z,18.20
2018-09-04T06:40:53.669Z,18.20
2018-09-04T06:43:22.088Z,18.10
2018-09-04T06:45:50.547Z,18.10
2018-09-04T06:48:18.985Z,18.00
2018-09-04T06:50:47.471Z,18.00
2018-09-04T06:53:16.388Z,18.00
2018-09-04T06:55:44.855Z,17.90
2018-09-04T06:58:13.720Z,17.90
2018-09-04T07:00:42.165Z,17.90
2018-09-04T07:03:11.197Z,17.80
2018-09-04T07:05:39.758Z,17.80
2018-09-04T07:08:08.324Z,17.90
2018-09-04T07:10:36.759Z,17.90
2018-09-04T07:13:05.444Z,17.90
2018-09-04T07:15:33.950Z,17.90
2018-09-04T07:18:02.463Z,17.90
2018-09-04T07:20:30.979Z,17.90
2018-09-04T07:22:59.497Z,18.00
2018-09-04T07:25:29.275Z,18.10
2018-09-04T07:27:57.778Z,18.20
2018-09-04T07:30:26.213Z,18.30
2018-09-04T07:32:54.757Z,18.30
2018-09-04T07:35:23.197Z,18.40
2018-09-04T07:37:51.913Z,18.40
2018-09-04T07:40:20.351Z,18.40
2018-09-04T07:42:48.808Z,18.40
2018-09-04T07:45:17.321Z,18.40
2018-09-04T07:47:45.854Z,18.50
2018-09-04T07:50:14.262Z,18.50
2018-09-04T07:52:42.902Z,18.50
2018-09-04T07:55:11.898Z,18.60
2018-09-04T07:57:41.392Z,18.70
2018-09-04T08:00:10.753Z,18.80
2018-09-04T08:02:39.978Z,18.80
2018-09-04T08:05:09.644Z,18.80
2018-09-04T08:07:38.117Z,19.00
2018-09-04T08:10:06.632Z,19.20
2018-09-04T08:12:35.091Z,19.30
2018-09-04T08:15:03.608Z,19.70
2018-09-04T08:17:32.077Z,20.00
2018-09-04T08:20:00.599Z,20.30
2018-09-04T08:22:29.085Z,20.30
2018-09-04T08:24:57.550Z,20.40
2018-09-04T08:27:25.978Z,20.80
2018-09-04T08:29:54.603Z,21.20
2018-09-04T08:32:23.911Z,21.40
2018-09-04T08:34:52.417Z,21.40
2018-09-04T08:37:20.905Z,21.40
2018-09-04T08:39:49.336Z,21.00
2018-09-04T08:42:17.777Z,21.20
2018-09-04T08:44:46.294Z,21.50
2018-09-04T08:47:14.940Z,21.50
2018-09-04T08:49:43.384Z,21.10
2018-09-04T08:52:12.158Z,21.00
2018-09-04T08:54:41.351Z,20.90
2018-09-04T08:57:09.822Z,21.10
2018-09-04T08:59:38.330Z,21.40
2018-09-04T09:02:06.824Z,21.60
2018-09-04T09:04:35.271Z,21.60
2018-09-04T09:07:03.887Z,21.60
2018-09-04T09:09:32.373Z,22.10
2018-09-04T09:12:00.921Z,22.10
2018-09-04T09:14:29.483Z,21.50
2018-09-04T09:16:57.994Z,21.60
2018-09-04T09:19:26.500Z,21.60
2018-09-04T09:21:55.084Z,21.80
2018-09-04T09:24:23.572Z,21.90
2018-09-04T09:26:52.172Z,21.80
2018-09-04T09:29:20.677Z,21.90
2018-09-04T09:31:49.363Z,21.80
2018-09-04T09:34:17.896Z,22.10
2018-09-04T09:36:46.541Z,22.30
2018-09-04T09:39:14.960Z,22.40
2018-09-04T09:41:43.456Z,22.90
2018-09-04T09:44:12.000Z,23.10
2018-09-04T09:46:41.423Z,23.60
2018-09-04T09:49:10.221Z,23.70
2018-09-04T09:51:38.853Z,24.00
2018-09-04T09:54:07.405Z,23.80
2018-09-04T09:56:35.958Z,23.80
2018-09-04T09:59:04.462Z,23.40
2018-09-04T10:01:38.240Z,23.30
2018-09-04T10:04:07.797Z,23.20
2018-09-04T10:06:36.336Z,23.30
2018-09-04T10:09:06.999Z,23.00
2018-09-04T10:11:35.772Z,23.10
2018-09-04T10:14:04.315Z,23.00
2018-09-04T10:16:32.727Z,23.10
2018-09-04T10:19:01.202Z,23.20
2018-09-04T10:21:30.265Z,23.50
2018-09-04T10:23:58.983Z,23.80
2018-09-04T10:26:27.865Z,24.10
2018-09-04T10:28:56.372Z,24.30
2018-09-04T10:31:31.442Z,24.30
2018-09-04T10:33:59.888Z,24.30
2018-09-04T10:36:28.398Z,24.10
2018-09-04T10:39:02.228Z,24.00
2018-09-04T10:41:31.420Z,24.20
2018-09-04T10:44:00.158Z,24.20
2018-09-04T10:46:28.738Z,24.20
2018-09-04T10:48:57.233Z,24.20
2018-09-04T10:51:26.761Z,24.50
2018-09-04T10:53:55.320Z,25.10
2018-09-04T10:56:23.863Z,25.50
2018-09-04T10:58:52.443Z,25.70
2018-09-04T11:01:20.997Z,25.60
2018-09-04T11:03:49.486Z,25.50
2018-09-04T11:06:18.037Z,25.30
2018-09-04T11:08:46.569Z,25.20
2018-09-04T11:11:15.050Z,25.40
2018-09-04T11:13:43.682Z,25.60
2018-09-04T11:16:12.210Z,25.90
2018-09-04T11:18:40.950Z,26.00
2018-09-04T11:21:09.804Z,25.60
2018-09-04T11:23:38.429Z,25.40
2018-09-04T11:26:07.061Z,25.30
2018-09-04T11:28:38.954Z,25.80
2018-09-04T11:31:10.007Z,25.60
2018-09-04T11:33:38.613Z,25.90
2018-09-04T11:36:08.439Z,26.00
2018-09-04T11:38:37.180Z,26.60
2018-09-04T11:41:07.934Z,26.60
2018-09-04T11:43:42.353Z,26.50
2018-09-04T11:46:14.112Z,27.00
2018-09-04T11:48:42.628Z,27.20
2018-09-04T11:51:16.511Z,27.20
2018-09-04T11:53:45.366Z,27.10
2018-09-04T11:56:18.630Z,27.10
2018-09-04T11:58:47.170Z,27.10
2018-09-04T12:01:17.041Z,27.00
2018-09-04T12:03:45.750Z,27.00
2018-09-04T12:06:14.292Z,27.00
2018-09-04T12:08:42.826Z,27.20
2018-09-04T12:11:11.601Z,27.30
2018-09-04T12:13:40.817Z,27.70
2018-09-04T12:16:09.403Z,27.80
2018-09-04T12:18:37.874Z,27.90
2018-09-04T12:21:08.112Z,27.20
2018-09-04T12:23:37.781Z,27.40
2018-09-04T12:26:07.799Z,27.80
2018-09-04T12:28:36.346Z,28.40
2018-09-04T12:31:05.205Z,28.40
2018-09-04T12:33:33.825Z,29.20
2018-09-04T12:36:02.363Z,29.30
2018-09-04T12:38:34.216Z,28.50
2018-09-04T12:41:08.078Z,28.30
2018-09-04T12:43:38.268Z,28.90
2018-09-04T12:46:07.107Z,29.60
2018-09-04T12:48:35.620Z,29.80
2018-09-04T12:51:04.210Z,29.10
2018-09-04T12:53:33.657Z,29.40
2018-09-04T12:56:02.301Z,29.70
2018-09-04T12:58:30.905Z,29.20
2018-09-04T13:00:59.649Z,29.60
2018-09-04T13:03:29.185Z,30.00
2018-09-04T13:05:57.838Z,29.90
2018-09-04T13:08:27.957Z,30.50
2018-09-04T13:10:56.532Z,29.40
2018-09-04T13:13:25.222Z,28.70
2018-09-04T13:15:56.318Z,29.40
2018-09-04T13:18:25.549Z,30.40
2018-09-04T13:20:58.244Z,31.40
2018-09-04T13:23:26.919Z,31.50
2018-09-04T13:25:56.370Z,32.10
2018-09-04T13:28:25.006Z,32.30
2018-09-04T13:30:53.596Z,32.60
2018-09-04T13:33:22.230Z,31.90
2018-09-04T13:35:50.671Z,32.00
2018-09-04T13:38:19.380Z,31.70
2018-09-04T13:40:48.086Z,32.10
2018-09-04T13:43:16.624Z,32.50
2018-09-04T13:45:45.248Z,32.60
2018-09-04T13:48:13.794Z,33.30
2018-09-04T13:50:42.906Z,32.10
2018-09-04T13:53:12.193Z,32.20
2018-09-04T13:55:40.810Z,32.50
2018-09-04T13:58:09.935Z,32.40
2018-09-04T14:00:38.425Z,32.40
2018-09-04T14:03:06.960Z,31.00
2018-09-04T14:05:35.329Z,30.10
2018-09-04T14:08:03.870Z,30.50
2018-09-04T14:10:32.322Z,30.60
2018-09-04T14:13:00.802Z,31.70
2018-09-04T14:15:29.210Z,31.60
2018-09-04T14:17:57.696Z,31.90
2018-09-04T14:20:26.192Z,31.90
2018-09-04T14:22:54.746Z,32.70
2018-09-04T14:25:23.384Z,33.40
2018-09-04T14:27:51.938Z,32.70
2018-09-04T14:30:20.473Z,32.50
2018-09-04T14:32:48.901Z,33.60
2018-09-04T14:35:17.422Z,33.80
2018-09-04T14:37:45.982Z,34.80
2018-09-04T14:40:14.423Z,35.20
2018-09-04T14:42:43.133Z,35.10
2018-09-04T14:45:11.926Z,35.80
2018-09-04T14:47:40.349Z,36.70
2018-09-04T14:50:09.045Z,36.40
2018-09-04T14:52:37.521Z,36.20
2018-09-04T14:55:06.234Z,34.40
2018-09-04T14:57:34.800Z,34.20
2018-09-04T15:00:03.311Z,34.50
2018-09-04T15:02:31.807Z,35.00
2018-09-04T15:05:00.382Z,35.90
2018-09-04T15:07:28.885Z,35.50
2018-09-04T15:09:57.437Z,34.50
2018-09-04T15:12:25.891Z,34.00
2018-09-04T15:14:54.376Z,33.10
2018-09-04T15:17:22.909Z,33.90
2018-09-04T15:19:51.403Z,34.80
2018-09-04T15:22:19.837Z,34.30
2018-09-04T15:24:48.335Z,33.80
2018-09-04T15:27:16.818Z,32.10
2018-09-04T15:29:45.422Z,30.70
2018-09-04T15:32:13.925Z,29.80
2018-09-04T15:34:42.760Z,29.30
2018-09-04T15:37:11.458Z,28.60
2018-09-04T15:39:40.199Z,28.50
2018-09-04T15:42:09.079Z,27.80
2018-09-04T15:44:39.113Z,27.60
2018-09-04T15:47:07.662Z,27.60
2018-09-04T15:49:41.558Z,27.60
2018-09-04T15:52:10.806Z,27.40
2018-09-04T15:54:39.990Z,27.40
2018-09-04T15:57:08.769Z,27.30
2018-09-04T15:59:38.202Z,27.20
2018-09-04T16:02:06.765Z,27.10
2018-09-04T16:04:35.303Z,26.90
2018-09-04T16:07:03.787Z,26.70
2018-09-04T16:09:39.124Z,26.60
2018-09-04T16:12:07.733Z,26.60
2018-09-04T16:14:36.491Z,26.40
2018-09-04T16:17:04.975Z,26.30
2018-09-04T16:19:33.475Z,26.20
2018-09-04T16:22:02.074Z,26.00
2018-09-04T16:24:30.790Z,26.10
2018-09-04T16:26:59.236Z,26.10
2018-09-04T16:29:27.875Z,26.10
2018-09-04T16:31:56.401Z,26.10
2018-09-04T16:34:24.996Z,26.00
2018-09-04T16:36:53.461Z,25.90
2018-09-04T16:39:22.039Z,25.90
2018-09-04T16:41:50.594Z,26.10
2018-09-04T16:44:19.057Z,26.00
2018-09-04T16:46:47.622Z,26.00
2018-09-04T16:49:16.049Z,26.10
2018-09-04T16:51:44.734Z,26.00
2018-09-04T16:54:13.119Z,26.00
2018-09-04T16:56:42.095Z,26.00
2018-09-04T16:59:11.703Z,26.00
2018-09-04T17:01:40.412Z,26.00
2018-09-04T17:04:09.559Z,25.90
2018-09-04T17:06:38.049Z,25.90
2018-09-04T17:09:06.754Z,26.00
2018-09-04T17:11:35.494Z,26.00
2018-09-04T17:14:04.224Z,26.00
2018-09-04T17:16:33.658Z,26.00
2018-09-04T17:19:02.130Z,25.90
2018-09-04T17:21:30.798Z,25.80
2018-09-04T17:23:59.449Z,25.80
2018-09-04T17:26:28.027Z,25.80
2018-09-04T17:28:56.660Z,25.70
2018-09-04T17:31:25.117Z,25.60
2018-09-04T17:33:53.599Z,25.50
2018-09-04T17:36:22.659Z,25.50
2018-09-04T17:38:51.120Z,25.70
2018-09-04T17:41:19.571Z,25.60
2018-09-04T17:43:48.033Z,25.40
2018-09-04T17:46:16.662Z,25.40
2018-09-04T17:48:45.220Z,25.30
2018-09-04T17:51:13.672Z,25.20
2018-09-04T17:53:42.176Z,25.10
2018-09-04T17:56:10.929Z,25.00
2018-09-04T17:58:39.972Z,24.90
2018-09-04T18:01:08.603Z,24.80
2018-09-04T18:03:43.658Z,24.80
2018-09-04T18:06:12.538Z,24.70
2018-09-04T18:08:41.834Z,24.70
2018-09-04T18:11:10.793Z,24.70
2018-09-04T18:13:40.238Z,24.70
2018-09-04T18:16:08.740Z,24.60
2018-09-04T18:18:37.288Z,24.60
2018-09-04T18:21:06.131Z,24.60
2018-09-04T18:23:34.616Z,24.50
2018-09-04T18:26:03.160Z,24.50
2018-09-04T18:28:31.636Z,24.50
2018-09-04T18:31:00.159Z,24.50
2018-09-04T18:33:28.620Z,24.40
2018-09-04T18:35:57.253Z,24.40
2018-09-04T18:38:26.161Z,24.40
2018-09-04T18:40:54.658Z,24.40
2018-09-04T18:43:23.293Z,24.30
2018-09-04T18:45:54.305Z,24.30
2018-09-04T18:48:22.796Z,24.30
2018-09-04T18:50:51.277Z,24.30
2018-09-04T18:53:19.830Z,24.30
2018-09-04T18:55:48.355Z,24.30
2018-09-04T18:58:16.835Z,24.30
2018-09-04T19:00:45.600Z,24.30
2018-09-04T19:03:14.162Z,24.20
2018-09-04T19:05:42.710Z,24.20
2018-09-04T19:08:11.497Z,24.20
2018-09-04T19:10:40.301Z,24.20
2018-09-04T19:13:08.762Z,24.10
2018-09-04T19:15:37.397Z,24.10
2018-09-04T19:18:05.855Z,24.00
2018-09-04T19:20:34.378Z,24.00
2018-09-04T19:23:03.015Z,24.00
2018-09-04T19:25:31.508Z,23.90
2018-09-04T19:28:00.059Z,23.90
2018-09-04T19:30:28.534Z,23.90
2018-09-04T19:32:57.088Z,23.80
2018-09-04T19:35:25.546Z,23.70
2018-09-04T19:37:53.938Z,23.70
2018-09-04T19:40:22.364Z,23.60
2018-09-04T19:42:50.895Z,23.60
2018-09-04T19:45:19.342Z,23.50
2018-09-04T19:47:47.798Z,23.50
2018-09-04T19:50:16.253Z,23.40
2018-09-04T19:52:44.683Z,23.40
2018-09-04T19:55:13.093Z,23.40
2018-09-04T19:57:41.868Z,23.30
2018-09-04T20:00:13.858Z,23.20
2018-09-04T20:04:06.788Z,23.10
2018-09-04T20:06:35.356Z,23.10
2018-09-04T20:09:04.692Z,23.00
2018-09-04T20:11:33.068Z,23.00
2018-09-04T20:14:01.477Z,22.90
2018-09-04T20:16:30.051Z,22.80
2018-09-04T20:18:58.504Z,22.80
2018-09-04T20:21:27.029Z,22.80
2018-09-04T20:23:55.463Z,22.80
2018-09-04T20:26:23.921Z,22.80
2018-09-04T20:28:52.470Z,22.70
2018-09-04T20:31:20.969Z,22.80
2018-09-04T20:33:49.432Z,22.80
2018-09-04T20:36:17.797Z,22.80
2018-09-04T20:38:46.221Z,22.80
2018-09-04T20:41:14.762Z,22.80
2018-09-04T20:43:43.145Z,22.80
2018-09-04T20:46:11.782Z,22.80
2018-09-04T20:48:41.140Z,22.80
2018-09-04T20:51:10.298Z,22.70
2018-09-04T20:53:38.756Z,22.80
2018-09-04T20:56:07.602Z,22.80
2018-09-04T20:58:47.373Z,22.80
2018-09-04T21:01:27.131Z,22.80
2018-09-04T21:04:06.730Z,22.80
2018-09-04T21:06:46.735Z,22.70
2018-09-04T21:09:27.199Z,22.70
2018-09-04T21:11:55.593Z,22.70
2018-09-04T21:14:24.489Z,22.70
2018-09-04T21:16:53.308Z,22.70
2018-09-04T21:19:21.874Z,22.70
2018-09-04T21:21:50.366Z,22.60
2018-09-04T21:24:32.775Z,22.60
2018-09-04T21:27:01.189Z,22.60
2018-09-04T21:29:29.697Z,22.60
2018-09-04T21:31:58.656Z,22.60
2018-09-04T21:34:27.150Z,22.60
2018-09-04T21:36:57.594Z,22.60
2018-09-04T21:39:26.115Z,22.50
2018-09-04T21:41:54.514Z,22.50
2018-09-04T21:44:27.349Z,22.40
2018-09-04T21:46:55.750Z,22.40
2018-09-04T21:49:24.266Z,22.40
2018-09-04T21:51:52.762Z,22.40
2018-09-04T21:54:21.208Z,22.30
2018-09-04T21:56:49.764Z,22.30
2018-09-04T21:59:18.151Z,22.30
2018-09-04T22:01:46.576Z,22.20
2018-09-04T22:04:15.216Z,22.10
2018-09-04T22:06:43.555Z,22.00
2018-09-04T22:09:11.938Z,21.90
2018-09-04T22:11:40.382Z,21.80
2018-09-04T22:14:08.772Z,21.80
2018-09-04T22:16:37.254Z,21.80
2018-09-04T22:19:05.758Z,21.70
2018-09-04T22:21:34.173Z,21.70
2018-09-04T22:24:02.500Z,21.60
2018-09-04T22:26:30.917Z,21.60
2018-09-04T22:28:59.381Z,21.60
2018-09-04T22:31:27.790Z,21.70
2018-09-04T22:33:56.302Z,21.60
2018-09-04T22:36:24.757Z,21.50
2018-09-04T22:38:53.182Z,21.50
2018-09-04T22:41:21.665Z,21.50
2018-09-04T22:43:50.082Z,21.50
2018-09-04T22:46:18.597Z,21.50
2018-09-04T22:48:47.067Z,21.40
2018-09-04T22:51:48.362Z,21.40
2018-09-04T22:54:17.153Z,21.40
2018-09-04T22:56:45.668Z,21.30
2018-09-04T22:59:14.071Z,21.30
2018-09-04T23:01:42.507Z,21.30
2018-09-04T23:04:10.967Z,21.30
2018-09-04T23:06:45.760Z,21.20
2018-09-04T23:09:14.279Z,21.20
2018-09-04T23:11:43.210Z,21.20
2018-09-04T23:14:11.692Z,21.20
2018-09-04T23:16:40.180Z,21.10
2018-09-04T23:19:08.717Z,21.00
2018-09-04T23:21:37.239Z,21.00
2018-09-04T23:24:05.788Z,20.90
2018-09-04T23:26:34.272Z,20.80
2018-09-04T23:29:02.695Z,20.90
2018-09-04T23:31:31.175Z,20.80
2018-09-04T23:33:59.586Z,20.80
2018-09-04T23:36:28.011Z,20.60
2018-09-04T23:38:56.392Z,20.60
2018-09-04T23:41:25.006Z,20.60
2018-09-04T23:43:53.360Z,20.50
2018-09-04T23:46:21.840Z,20.50
2018-09-04T23:48:50.265Z,20.40
2018-09-04T23:51:18.756Z,20.40
2018-09-04T23:53:47.149Z,20.40
2018-09-04T23:56:15.570Z,20.30
2018-09-04T23:58:44.574Z,20.30
